الصفحة الرئيسية
METAR-TAF:

METAR-TAF

مطار :

مطار سينتاني

جايابورا, إندونيسيا

دائرة عرض: 02-34-37S, خط طول: 140-30-58E, ارتفاع: 88 متر

مراقبة الطقس الحالي

تاريخ ووقت الإصدار 34 دقيقة قبل الساعة 18:00UTC
ريح 2 عقدة من الغرب/الجنوب الغربي
درجة الحرارة 25°درجة مئوية
الرطوبة 83%
ضغط 1009 hPa
الرؤية 10 كم أو أكثر
غيوم قليلة على ارتفاع 1200 قدم

METAR: WAJJ 021800Z 24002KT 9999 FEW012 25/22 Q1009 NOSIG

زمن: 01:34 (18:34 UTC)


TAF: مفقودة

أرصاد الطقس والتوقعات من أكثر من 4000 مطار (تقارير الطقس للمطار METAR والتنبؤ بالطقس بالمطارTAF).

المحطات المتاحة هي النقط الصفراء والحمراء على الخريطة.

حرك المؤشر فوق النقطة لمعرفة اسم المحطة.

ثم انقر لمعرفة أرصاد وتوقعات الطقس.

لتغيير الخارطة: اضغط على الأزرار الخضراء مع رمز الصليب الأسود للتكبير. على الزر الأخضر مع شرطة للتصغير، أو على الأسهم الخضراء للخرائط المجاورة.


METAR-TAF: